sensor_id;sensor_type;location;lat;lon;timestamp;temperature;humidity
12470;DHT22;36499;46.484;13.832;2023-01-28T00:00:52;-2.40;99.90
12470;DHT22;36499;46.484;13.832;2023-01-28T00:03:21;-2.30;99.90
12470;DHT22;36499;46.484;13.832;2023-01-28T00:05:48;-2.30;99.90
12470;DHT22;36499;46.484;13.832;2023-01-28T00:08:15;-2.40;99.90
12470;DHT22;36499;46.484;13.832;2023-01-28T00:10:42;-2.30;99.90
12470;DHT22;36499;46.484;13.832;2023-01-28T00:13:11;-2.30;99.90
12470;DHT22;36499;46.484;13.832;2023-01-28T00:15:39;-2.40;99.90
12470;DHT22;36499;46.484;13.832;2023-01-28T00:18:06;-2.40;99.90
12470;DHT22;36499;46.484;13.832;2023-01-28T00:20:34;-2.40;99.90
12470;DHT22;36499;46.484;13.832;2023-01-28T00:23:01;-2.40;99.90
12470;DHT22;36499;46.484;13.832;2023-01-28T00:25:29;-2.40;99.90
12470;DHT22;36499;46.484;13.832;2023-01-28T00:27:56;-2.40;99.90
12470;DHT22;36499;46.484;13.832;2023-01-28T00:30:24;-2.40;99.90
12470;DHT22;36499;46.484;13.832;2023-01-28T00:32:52;-2.40;99.90
12470;DHT22;36499;46.484;13.832;2023-01-28T00:35:20;-2.40;99.90
12470;DHT22;36499;46.484;13.832;2023-01-28T00:37:48;-2.40;99.90
12470;DHT22;36499;46.484;13.832;2023-01-28T00:40:15;-2.50;99.90
12470;DHT22;36499;46.484;13.832;2023-01-28T00:42:43;-2.50;99.90
12470;DHT22;36499;46.484;13.832;2023-01-28T00:45:10;-2.50;99.90
12470;DHT22;36499;46.484;13.832;2023-01-28T00:47:37;-2.40;99.90
12470;DHT22;36499;46.484;13.832;2023-01-28T00:50:05;-2.40;99.90
12470;DHT22;36499;46.484;13.832;2023-01-28T00:52:32;-2.50;99.90
12470;DHT22;36499;46.484;13.832;2023-01-28T00:55:01;-2.50;99.90
12470;DHT22;36499;46.484;13.832;2023-01-28T00:57:28;-2.50;99.90
12470;DHT22;36499;46.484;13.832;2023-01-28T00:59:55;-2.60;99.90
12470;DHT22;36499;46.484;13.832;2023-01-28T01:02:22;-2.60;99.90
12470;DHT22;36499;46.484;13.832;2023-01-28T01:04:50;-2.70;99.90
12470;DHT22;36499;46.484;13.832;2023-01-28T01:07:27;-2.70;99.90
12470;DHT22;36499;46.484;13.832;2023-01-28T01:10:00;-2.70;99.90
12470;DHT22;36499;46.484;13.832;2023-01-28T01:12:28;-2.80;99.90
12470;DHT22;36499;46.484;13.832;2023-01-28T01:14:56;-2.80;99.90
12470;DHT22;36499;46.484;13.832;2023-01-28T01:17:23;-2.70;99.90
12470;DHT22;36499;46.484;13.832;2023-01-28T01:19:50;-2.80;99.90
12470;DHT22;36499;46.484;13.832;2023-01-28T01:22:17;-2.80;99.90
12470;DHT22;36499;46.484;13.832;2023-01-28T01:24:46;-2.80;99.90
12470;DHT22;36499;46.484;13.832;2023-01-28T01:27:15;-2.90;99.90
12470;DHT22;36499;46.484;13.832;2023-01-28T01:29:42;-2.90;99.90
12470;DHT22;36499;46.484;13.832;2023-01-28T01:32:09;-2.80;99.90
12470;DHT22;36499;46.484;13.832;2023-01-28T01:34:36;-2.80;99.90
12470;DHT22;36499;46.484;13.832;2023-01-28T01:37:03;-2.80;99.90
12470;DHT22;36499;46.484;13.832;2023-01-28T01:39:32;-2.80;99.90
12470;DHT22;36499;46.484;13.832;2023-01-28T01:42:00;-2.80;99.90
12470;DHT22;36499;46.484;13.832;2023-01-28T01:44:57;-2.90;99.90
12470;DHT22;36499;46.484;13.832;2023-01-28T01:47:31;-2.90;99.90
12470;DHT22;36499;46.484;13.832;2023-01-28T01:50:09;-2.90;99.90
12470;DHT22;36499;46.484;13.832;2023-01-28T01:52:42;-2.90;99.90
12470;DHT22;36499;46.484;13.832;2023-01-28T01:55:14;-2.90;99.90
12470;DHT22;36499;46.484;13.832;2023-01-28T01:57:45;-2.90;99.90
12470;DHT22;36499;46.484;13.832;2023-01-28T02:00:18;-3.00;99.90
12470;DHT22;36499;46.484;13.832;2023-01-28T02:02:47;-2.90;99.90
12470;DHT22;36499;46.484;13.832;2023-01-28T02:05:18;-2.90;99.90
12470;DHT22;36499;46.484;13.832;2023-01-28T02:07:49;-2.80;99.90
12470;DHT22;36499;46.484;13.832;2023-01-28T02:10:40;-2.80;99.90
12470;DHT22;36499;46.484;13.832;2023-01-28T02:13:07;-2.90;99.90
12470;DHT22;36499;46.484;13.832;2023-01-28T02:15:35;-3.00;99.90
12470;DHT22;36499;46.484;13.832;2023-01-28T02:18:03;-3.00;99.90
12470;DHT22;36499;46.484;13.832;2023-01-28T02:20:38;-3.00;99.90
12470;DHT22;36499;46.484;13.832;2023-01-28T02:23:30;-2.90;99.90
12470;DHT22;36499;46.484;13.832;2023-01-28T02:26:39;-2.90;99.90
12470;DHT22;36499;46.484;13.832;2023-01-28T02:29:21;-2.90;99.90
12470;DHT22;36499;46.484;13.832;2023-01-28T02:31:56;-2.90;99.90
12470;DHT22;36499;46.484;13.832;2023-01-28T02:34:37;-2.80;99.90
12470;DHT22;36499;46.484;13.832;2023-01-28T02:37:13;-2.80;99.90
12470;DHT22;36499;46.484;13.832;2023-01-28T02:39:47;-2.80;99.90
12470;DHT22;36499;46.484;13.832;2023-01-28T02:42:20;-2.80;99.90
12470;DHT22;36499;46.484;13.832;2023-01-28T02:44:52;-2.90;99.90
12470;DHT22;36499;46.484;13.832;2023-01-28T02:47:19;-2.90;99.90
12470;DHT22;36499;46.484;13.832;2023-01-28T02:50:07;-2.90;99.90
12470;DHT22;36499;46.484;13.832;2023-01-28T02:52:45;-2.90;99.90
12470;DHT22;36499;46.484;13.832;2023-01-28T02:55:44;-2.90;99.90
12470;DHT22;36499;46.484;13.832;2023-01-28T02:58:22;-2.90;99.90
12470;DHT22;36499;46.484;13.832;2023-01-28T03:01:06;-2.90;99.90
12470;DHT22;36499;46.484;13.832;2023-01-28T03:03:44;-2.90;99.90
12470;DHT22;36499;46.484;13.832;2023-01-28T03:06:26;-2.90;99.90
12470;DHT22;36499;46.484;13.832;2023-01-28T03:08:59;-2.90;99.90
12470;DHT22;36499;46.484;13.832;2023-01-28T03:11:50;-2.90;99.90
12470;DHT22;36499;46.484;13.832;2023-01-28T03:14:38;-2.90;99.90
12470;DHT22;36499;46.484;13.832;2023-01-28T03:17:33;-2.90;99.90
12470;DHT22;36499;46.484;13.832;2023-01-28T03:20:34;-2.90;99.90
12470;DHT22;36499;46.484;13.832;2023-01-28T03:23:32;-2.90;99.90
12470;DHT22;36499;46.484;13.832;2023-01-28T03:26:23;-2.90;99.90
12470;DHT22;36499;46.484;13.832;2023-01-28T03:29:13;-2.90;99.90
12470;DHT22;36499;46.484;13.832;2023-01-28T03:32:00;-2.90;99.90
12470;DHT22;36499;46.484;13.832;2023-01-28T03:34:47;-2.90;99.90
12470;DHT22;36499;46.484;13.832;2023-01-28T03:37:32;-2.90;99.90
12470;DHT22;36499;46.484;13.832;2023-01-28T03:40:02;-2.90;99.90
12470;DHT22;36499;46.484;13.832;2023-01-28T03:42:31;-2.90;99.90
12470;DHT22;36499;46.484;13.832;2023-01-28T03:44:58;-2.80;99.90
12470;DHT22;36499;46.484;13.832;2023-01-28T03:47:29;-2.70;99.90
12470;DHT22;36499;46.484;13.832;2023-01-28T03:49:59;-2.70;99.90
12470;DHT22;36499;46.484;13.832;2023-01-28T03:52:29;-2.80;99.90
12470;DHT22;36499;46.484;13.832;2023-01-28T03:54:58;-2.90;99.90
12470;DHT22;36499;46.484;13.832;2023-01-28T03:57:26;-3.00;99.90
12470;DHT22;36499;46.484;13.832;2023-01-28T03:59:55;-3.00;99.90
12470;DHT22;36499;46.484;13.832;2023-01-28T04:02:23;-3.00;99.90
12470;DHT22;36499;46.484;13.832;2023-01-28T04:04:51;-3.00;99.90
12470;DHT22;36499;46.484;13.832;2023-01-28T04:07:20;-3.00;99.90
12470;DHT22;36499;46.484;13.832;2023-01-28T04:09:47;-3.00;99.90
12470;DHT22;36499;46.484;13.832;2023-01-28T04:12:14;-3.00;99.90
12470;DHT22;36499;46.484;13.832;2023-01-28T04:14:41;-3.00;99.90
12470;DHT22;36499;46.484;13.832;2023-01-28T04:17:08;-3.00;99.90
12470;DHT22;36499;46.484;13.832;2023-01-28T04:19:36;-3.00;99.90
12470;DHT22;36499;46.484;13.832;2023-01-28T04:22:04;-3.00;99.90
12470;DHT22;36499;46.484;13.832;2023-01-28T04:24:33;-3.00;99.90
12470;DHT22;36499;46.484;13.832;2023-01-28T04:27:01;-3.00;99.90
12470;DHT22;36499;46.484;13.832;2023-01-28T04:29:28;-3.00;99.90
12470;DHT22;36499;46.484;13.832;2023-01-28T04:31:56;-3.00;99.90
12470;DHT22;36499;46.484;13.832;2023-01-28T04:34:23;-3.00;99.90
12470;DHT22;36499;46.484;13.832;2023-01-28T04:36:50;-3.00;99.90
12470;DHT22;36499;46.484;13.832;2023-01-28T04:39:17;-2.90;99.90
12470;DHT22;36499;46.484;13.832;2023-01-28T04:41:45;-2.90;99.90
12470;DHT22;36499;46.484;13.832;2023-01-28T04:44:12;-2.90;99.90
12470;DHT22;36499;46.484;13.832;2023-01-28T04:46:41;-2.90;99.90
12470;DHT22;36499;46.484;13.832;2023-01-28T04:49:08;-3.00;99.90
12470;DHT22;36499;46.484;13.832;2023-01-28T04:51:35;-3.00;99.90
12470;DHT22;36499;46.484;13.832;2023-01-28T04:54:02;-3.00;99.90
12470;DHT22;36499;46.484;13.832;2023-01-28T04:56:29;-3.00;99.90
12470;DHT22;36499;46.484;13.832;2023-01-28T04:58:58;-3.00;99.90
12470;DHT22;36499;46.484;13.832;2023-01-28T05:01:25;-3.00;99.90
12470;DHT22;36499;46.484;13.832;2023-01-28T05:03:52;-3.00;99.90
12470;DHT22;36499;46.484;13.832;2023-01-28T05:06:19;-3.00;99.90
12470;DHT22;36499;46.484;13.832;2023-01-28T05:08:46;-3.00;99.90
12470;DHT22;36499;46.484;13.832;2023-01-28T05:11:14;-3.00;99.90
12470;DHT22;36499;46.484;13.832;2023-01-28T05:13:41;-2.90;99.90
12470;DHT22;36499;46.484;13.832;2023-01-28T05:16:09;-2.90;99.90
12470;DHT22;36499;46.484;13.832;2023-01-28T05:18:36;-2.80;99.90
12470;DHT22;36499;46.484;13.832;2023-01-28T05:21:03;-2.90;99.90
12470;DHT22;36499;46.484;13.832;2023-01-28T05:23:31;-2.90;99.90
12470;DHT22;36499;46.484;13.832;2023-01-28T05:25:58;-3.00;99.90
12470;DHT22;36499;46.484;13.832;2023-01-28T05:28:25;-3.00;99.90
12470;DHT22;36499;46.484;13.832;2023-01-28T05:30:53;-3.00;99.90
12470;DHT22;36499;46.484;13.832;2023-01-28T05:33:22;-3.00;99.90
12470;DHT22;36499;46.484;13.832;2023-01-28T05:35:49;-3.00;99.90
12470;DHT22;36499;46.484;13.832;2023-01-28T05:38:16;-3.10;99.90
12470;DHT22;36499;46.484;13.832;2023-01-28T05:40:43;-3.00;99.90
12470;DHT22;36499;46.484;13.832;2023-01-28T05:43:10;-3.00;99.90
12470;DHT22;36499;46.484;13.832;2023-01-28T05:45:37;-3.00;99.90
12470;DHT22;36499;46.484;13.832;2023-01-28T05:48:04;-3.00;99.90
12470;DHT22;36499;46.484;13.832;2023-01-28T05:50:33;-3.00;99.90
12470;DHT22;36499;46.484;13.832;2023-01-28T05:53:01;-3.00;99.90
12470;DHT22;36499;46.484;13.832;2023-01-28T05:55:31;-3.00;99.90
12470;DHT22;36499;46.484;13.832;2023-01-28T05:57:58;-3.00;99.90
12470;DHT22;36499;46.484;13.832;2023-01-28T06:00:25;-3.00;99.90
12470;DHT22;36499;46.484;13.832;2023-01-28T06:02:52;-2.90;99.90
12470;DHT22;36499;46.484;13.832;2023-01-28T06:05:19;-2.90;99.90
12470;DHT22;36499;46.484;13.832;2023-01-28T06:07:48;-2.90;99.90
12470;DHT22;36499;46.484;13.832;2023-01-28T06:10:15;-2.90;99.90
12470;DHT22;36499;46.484;13.832;2023-01-28T06:12:43;-2.90;99.90
12470;DHT22;36499;46.484;13.832;2023-01-28T06:15:10;-2.90;99.90
12470;DHT22;36499;46.484;13.832;2023-01-28T06:17:38;-2.90;99.90
12470;DHT22;36499;46.484;13.832;2023-01-28T06:20:06;-2.90;99.90
12470;DHT22;36499;46.484;13.832;2023-01-28T06:22:35;-2.90;99.90
12470;DHT22;36499;46.484;13.832;2023-01-28T06:25:04;-2.90;99.90
12470;DHT22;36499;46.484;13.832;2023-01-28T06:27:32;-2.90;99.90
12470;DHT22;36499;46.484;13.832;2023-01-28T06:29:59;-2.90;99.90
12470;DHT22;36499;46.484;13.832;2023-01-28T06:32:26;-2.90;99.90
12470;DHT22;36499;46.484;13.832;2023-01-28T06:34:53;-2.90;99.90
12470;DHT22;36499;46.484;13.832;2023-01-28T06:37:21;-2.90;99.90
12470;DHT22;36499;46.484;13.832;2023-01-28T06:39:49;-2.90;99.90
12470;DHT22;36499;46.484;13.832;2023-01-28T06:42:17;-2.90;99.90
12470;DHT22;36499;46.484;13.832;2023-01-28T06:44:44;-2.80;99.90
12470;DHT22;36499;46.484;13.832;2023-01-28T06:47:11;-2.90;99.90
12470;DHT22;36499;46.484;13.832;2023-01-28T06:49:39;-2.90;99.90
12470;DHT22;36499;46.484;13.832;2023-01-28T06:52:06;-2.90;99.90
12470;DHT22;36499;46.484;13.832;2023-01-28T06:54:34;-2.90;99.90
12470;DHT22;36499;46.484;13.832;2023-01-28T06:57:01;-2.90;99.90
12470;DHT22;36499;46.484;13.832;2023-01-28T06:59:29;-2.90;99.90
12470;DHT22;36499;46.484;13.832;2023-01-28T07:01:56;-2.90;99.90
12470;DHT22;36499;46.484;13.832;2023-01-28T07:04:23;-2.90;99.90
12470;DHT22;36499;46.484;13.832;2023-01-28T07:06:50;-2.90;99.90
12470;DHT22;36499;46.484;13.832;2023-01-28T07:09:17;-2.80;99.90
12470;DHT22;36499;46.484;13.832;2023-01-28T07:11:44;-2.80;99.90
12470;DHT22;36499;46.484;13.832;2023-01-28T07:14:11;-2.80;99.90
12470;DHT22;36499;46.484;13.832;2023-01-28T07:16:40;-2.80;99.90
12470;DHT22;36499;46.484;13.832;2023-01-28T07:19:07;-2.80;99.90
12470;DHT22;36499;46.484;13.832;2023-01-28T07:21:34;-2.80;99.90
12470;DHT22;36499;46.484;13.832;2023-01-28T07:24:01;-2.70;99.90
12470;DHT22;36499;46.484;13.832;2023-01-28T07:26:29;-2.80;99.90
12470;DHT22;36499;46.484;13.832;2023-01-28T07:28:57;-2.90;99.90
12470;DHT22;36499;46.484;13.832;2023-01-28T07:31:24;-2.80;99.90
12470;DHT22;36499;46.484;13.832;2023-01-28T07:33:53;-2.80;99.90
12470;DHT22;36499;46.484;13.832;2023-01-28T07:36:20;-2.80;99.90
12470;DHT22;36499;46.484;13.832;2023-01-28T07:38:47;-2.70;99.90
12470;DHT22;36499;46.484;13.832;2023-01-28T07:41:14;-2.80;99.90
12470;DHT22;36499;46.484;13.832;2023-01-28T07:43:41;-2.80;99.90
12470;DHT22;36499;46.484;13.832;2023-01-28T07:46:08;-2.70;99.90
12470;DHT22;36499;46.484;13.832;2023-01-28T07:48:35;-2.70;99.90
12470;DHT22;36499;46.484;13.832;2023-01-28T07:51:04;-2.70;99.90
12470;DHT22;36499;46.484;13.832;2023-01-28T07:53:31;-2.70;99.90
12470;DHT22;36499;46.484;13.832;2023-01-28T07:55:59;-2.70;99.90
12470;DHT22;36499;46.484;13.832;2023-01-28T07:58:26;-2.60;99.90
12470;DHT22;36499;46.484;13.832;2023-01-28T08:00:56;-2.50;99.90
12470;DHT22;36499;46.484;13.832;2023-01-28T08:03:23;-2.50;99.90
12470;DHT22;36499;46.484;13.832;2023-01-28T08:05:53;-2.50;99.90
12470;DHT22;36499;46.484;13.832;2023-01-28T08:08:23;-2.50;99.90
12470;DHT22;36499;46.484;13.832;2023-01-28T08:10:51;-2.50;99.90
12470;DHT22;36499;46.484;13.832;2023-01-28T08:13:19;-2.50;99.90
12470;DHT22;36499;46.484;13.832;2023-01-28T08:15:46;-2.50;99.90
12470;DHT22;36499;46.484;13.832;2023-01-28T08:18:14;-2.50;99.90
12470;DHT22;36499;46.484;13.832;2023-01-28T08:20:42;-2.40;99.90
12470;DHT22;36499;46.484;13.832;2023-01-28T08:23:13;-2.50;99.90
12470;DHT22;36499;46.484;13.832;2023-01-28T08:25:43;-2.50;99.90
12470;DHT22;36499;46.484;13.832;2023-01-28T08:28:11;-2.40;99.90
12470;DHT22;36499;46.484;13.832;2023-01-28T08:30:39;-2.40;99.90
12470;DHT22;36499;46.484;13.832;2023-01-28T08:33:07;-2.40;99.90
12470;DHT22;36499;46.484;13.832;2023-01-28T08:35:36;-2.30;99.90
12470;DHT22;36499;46.484;13.832;2023-01-28T08:38:05;-2.30;99.90
12470;DHT22;36499;46.484;13.832;2023-01-28T08:40:33;-2.30;99.90
12470;DHT22;36499;46.484;13.832;2023-01-28T08:43:02;-2.30;99.90
12470;DHT22;36499;46.484;13.832;2023-01-28T08:45:29;-2.30;99.90
12470;DHT22;36499;46.484;13.832;2023-01-28T08:47:58;-2.20;99.90
12470;DHT22;36499;46.484;13.832;2023-01-28T08:50:28;-2.20;99.90
12470;DHT22;36499;46.484;13.832;2023-01-28T08:52:58;-2.20;99.90
12470;DHT22;36499;46.484;13.832;2023-01-28T08:55:27;-2.20;99.90
12470;DHT22;36499;46.484;13.832;2023-01-28T08:57:56;-2.20;99.90
12470;DHT22;36499;46.484;13.832;2023-01-28T09:00:24;-2.10;99.90
12470;DHT22;36499;46.484;13.832;2023-01-28T09:02:52;-2.10;99.90
12470;DHT22;36499;46.484;13.832;2023-01-28T09:05:19;-2.10;99.90
12470;DHT22;36499;46.484;13.832;2023-01-28T09:07:47;-2.10;99.90
12470;DHT22;36499;46.484;13.832;2023-01-28T09:10:16;-2.10;99.90
12470;DHT22;36499;46.484;13.832;2023-01-28T09:12:45;-2.10;99.90
12470;DHT22;36499;46.484;13.832;2023-01-28T09:15:12;-2.00;99.90
12470;DHT22;36499;46.484;13.832;2023-01-28T09:17:41;-2.00;99.90
12470;DHT22;36499;46.484;13.832;2023-01-28T09:20:09;-1.90;99.90
12470;DHT22;36499;46.484;13.832;2023-01-28T09:22:37;-1.90;99.90
12470;DHT22;36499;46.484;13.832;2023-01-28T09:25:05;-1.90;99.90
12470;DHT22;36499;46.484;13.832;2023-01-28T09:27:32;-1.90;99.90
12470;DHT22;36499;46.484;13.832;2023-01-28T09:30:00;-1.80;99.90
12470;DHT22;36499;46.484;13.832;2023-01-28T09:32:27;-1.80;99.90
12470;DHT22;36499;46.484;13.832;2023-01-28T09:34:57;-1.70;99.90
12470;DHT22;36499;46.484;13.832;2023-01-28T09:37:25;-1.70;99.90
12470;DHT22;36499;46.484;13.832;2023-01-28T09:39:52;-1.70;99.90
12470;DHT22;36499;46.484;13.832;2023-01-28T09:42:29;-1.60;99.90
12470;DHT22;36499;46.484;13.832;2023-01-28T09:45:12;-1.60;99.90
12470;DHT22;36499;46.484;13.832;2023-01-28T09:47:46;-1.50;99.90
12470;DHT22;36499;46.484;13.832;2023-01-28T09:50:23;-1.40;99.90
12470;DHT22;36499;46.484;13.832;2023-01-28T09:52:55;-1.30;99.90
12470;DHT22;36499;46.484;13.832;2023-01-28T09:55:32;-1.30;99.90
12470;DHT22;36499;46.484;13.832;2023-01-28T09:58:03;-1.20;99.90
12470;DHT22;36499;46.484;13.832;2023-01-28T10:00:37;-1.20;99.90
12470;DHT22;36499;46.484;13.832;2023-01-28T10:03:25;-1.20;99.90
12470;DHT22;36499;46.484;13.832;2023-01-28T10:06:13;-1.20;99.90
12470;DHT22;36499;46.484;13.832;2023-01-28T10:09:14;-1.20;99.90
12470;DHT22;36499;46.484;13.832;2023-01-28T10:12:08;-1.20;99.90
12470;DHT22;36499;46.484;13.832;2023-01-28T10:14:58;-1.20;99.90
12470;DHT22;36499;46.484;13.832;2023-01-28T10:17:44;-1.20;99.90
12470;DHT22;36499;46.484;13.832;2023-01-28T10:20:19;-1.10;99.90
12470;DHT22;36499;46.484;13.832;2023-01-28T10:23:02;-1.10;99.90
12470;DHT22;36499;46.484;13.832;2023-01-28T10:25:34;-1.10;99.90
12470;DHT22;36499;46.484;13.832;2023-01-28T10:28:01;-1.10;99.90
12470;DHT22;36499;46.484;13.832;2023-01-28T10:30:37;-1.10;99.90
12470;DHT22;36499;46.484;13.832;2023-01-28T10:33:15;-1.10;99.90
12470;DHT22;36499;46.484;13.832;2023-01-28T10:35:44;-1.10;99.90
12470;DHT22;36499;46.484;13.832;2023-01-28T10:38:16;-1.00;99.90
12470;DHT22;36499;46.484;13.832;2023-01-28T10:40:46;-1.00;99.90
12470;DHT22;36499;46.484;13.832;2023-01-28T10:43:15;-0.90;99.90
12470;DHT22;36499;46.484;13.832;2023-01-28T10:45:52;-0.90;99.90
12470;DHT22;36499;46.484;13.832;2023-01-28T10:48:27;-0.90;99.90
12470;DHT22;36499;46.484;13.832;2023-01-28T10:50:57;-0.80;99.90
12470;DHT22;36499;46.484;13.832;2023-01-28T10:53:36;-0.70;99.90
12470;DHT22;36499;46.484;13.832;2023-01-28T10:56:07;-0.70;99.90
12470;DHT22;36499;46.484;13.832;2023-01-28T10:58:49;-0.60;99.90
12470;DHT22;36499;46.484;13.832;2023-01-28T11:01:25;-0.60;99.90
12470;DHT22;36499;46.484;13.832;2023-01-28T11:04:03;-0.60;99.90
12470;DHT22;36499;46.484;13.832;2023-01-28T11:06:32;-0.50;99.90
12470;DHT22;36499;46.484;13.832;2023-01-28T11:09:00;-0.30;99.90
12470;DHT22;36499;46.484;13.832;2023-01-28T11:11:27;-0.20;99.90
12470;DHT22;36499;46.484;13.832;2023-01-28T11:13:55;-0.10;99.90
12470;DHT22;36499;46.484;13.832;2023-01-28T11:16:24;0.10;99.90
12470;DHT22;36499;46.484;13.832;2023-01-28T11:18:53;0.30;99.90
12470;DHT22;36499;46.484;13.832;2023-01-28T11:21:25;0.50;99.90
12470;DHT22;36499;46.484;13.832;2023-01-28T11:23:57;0.60;99.90
12470;DHT22;36499;46.484;13.832;2023-01-28T11:26:31;0.70;99.90
12470;DHT22;36499;46.484;13.832;2023-01-28T11:29:00;0.80;99.90
12470;DHT22;36499;46.484;13.832;2023-01-28T11:31:28;0.90;99.90
12470;DHT22;36499;46.484;13.832;2023-01-28T11:34:04;1.00;99.90
12470;DHT22;36499;46.484;13.832;2023-01-28T11:36:33;1.10;99.90
12470;DHT22;36499;46.484;13.832;2023-01-28T11:39:15;1.00;99.90
12470;DHT22;36499;46.484;13.832;2023-01-28T11:41:46;1.10;99.90
12470;DHT22;36499;46.484;13.832;2023-01-28T11:44:16;1.10;99.90
12470;DHT22;36499;46.484;13.832;2023-01-28T11:47:16;1.10;99.90
12470;DHT22;36499;46.484;13.832;2023-01-28T11:50:04;1.10;99.90
12470;DHT22;36499;46.484;13.832;2023-01-28T11:52:52;1.10;99.90
12470;DHT22;36499;46.484;13.832;2023-01-28T11:55:39;1.10;99.90
12470;DHT22;36499;46.484;13.832;2023-01-28T11:58:20;1.10;99.90
12470;DHT22;36499;46.484;13.832;2023-01-28T12:01:00;0.90;99.90
12470;DHT22;36499;46.484;13.832;2023-01-28T12:03:51;0.90;99.90
12470;DHT22;36499;46.484;13.832;2023-01-28T12:06:44;0.80;99.90
12470;DHT22;36499;46.484;13.832;2023-01-28T12:09:28;0.60;99.90
12470;DHT22;36499;46.484;13.832;2023-01-28T12:12:19;0.50;99.90
12470;DHT22;36499;46.484;13.832;2023-01-28T12:15:20;0.50;99.90
12470;DHT22;36499;46.484;13.832;2023-01-28T12:18:24;0.40;99.90
12470;DHT22;36499;46.484;13.832;2023-01-28T12:21:13;0.40;99.90
12470;DHT22;36499;46.484;13.832;2023-01-28T12:23:58;0.30;99.90
12470;DHT22;36499;46.484;13.832;2023-01-28T12:26:41;0.30;99.90
12470;DHT22;36499;46.484;13.832;2023-01-28T12:29:25;0.40;99.90
12470;DHT22;36499;46.484;13.832;2023-01-28T12:32:11;0.40;99.90
12470;DHT22;36499;46.484;13.832;2023-01-28T12:35:06;0.40;99.90
12470;DHT22;36499;46.484;13.832;2023-01-28T12:37:59;0.50;99.90
12470;DHT22;36499;46.484;13.832;2023-01-28T12:40:46;0.40;99.90
12470;DHT22;36499;46.484;13.832;2023-01-28T12:43:32;0.40;99.90
12470;DHT22;36499;46.484;13.832;2023-01-28T12:46:16;0.40;99.90
12470;DHT22;36499;46.484;13.832;2023-01-28T12:48:50;0.40;99.90
12470;DHT22;36499;46.484;13.832;2023-01-28T12:51:26;0.50;99.90
12470;DHT22;36499;46.484;13.832;2023-01-28T12:54:01;0.50;99.90
12470;DHT22;36499;46.484;13.832;2023-01-28T12:56:37;0.50;99.90
12470;DHT22;36499;46.484;13.832;2023-01-28T12:59:13;0.50;99.90
12470;DHT22;36499;46.484;13.832;2023-01-28T13:01:49;0.50;99.90
12470;DHT22;36499;46.484;13.832;2023-01-28T13:04:35;0.40;99.90
12470;DHT22;36499;46.484;13.832;2023-01-28T13:07:09;0.40;99.90
12470;DHT22;36499;46.484;13.832;2023-01-28T13:09:47;0.40;99.90
12470;DHT22;36499;46.484;13.832;2023-01-28T13:12:19;0.30;99.90
12470;DHT22;36499;46.484;13.832;2023-01-28T13:14:48;0.30;99.90
12470;DHT22;36499;46.484;13.832;2023-01-28T13:17:26;0.30;99.90
12470;DHT22;36499;46.484;13.832;2023-01-28T13:19:55;0.30;99.90
12470;DHT22;36499;46.484;13.832;2023-01-28T13:22:28;0.30;99.90
12470;DHT22;36499;46.484;13.832;2023-01-28T13:25:17;0.30;99.90
12470;DHT22;36499;46.484;13.832;2023-01-28T13:27:54;0.40;99.90
12470;DHT22;36499;46.484;13.832;2023-01-28T13:30:26;0.40;99.90
12470;DHT22;36499;46.484;13.832;2023-01-28T13:32:57;0.40;99.90
12470;DHT22;36499;46.484;13.832;2023-01-28T13:35:30;0.50;99.90
12470;DHT22;36499;46.484;13.832;2023-01-28T13:38:06;0.50;99.90
12470;DHT22;36499;46.484;13.832;2023-01-28T13:40:35;0.50;99.90
12470;DHT22;36499;46.484;13.832;2023-01-28T13:43:25;0.60;99.90
12470;DHT22;36499;46.484;13.832;2023-01-28T13:46:04;0.60;99.90
12470;DHT22;36499;46.484;13.832;2023-01-28T13:48:39;0.70;99.90
12470;DHT22;36499;46.484;13.832;2023-01-28T13:51:17;0.80;99.90
12470;DHT22;36499;46.484;13.832;2023-01-28T13:53:50;0.80;99.90
12470;DHT22;36499;46.484;13.832;2023-01-28T13:56:25;0.80;99.90
12470;DHT22;36499;46.484;13.832;2023-01-28T13:59:14;0.80;99.90
12470;DHT22;36499;46.484;13.832;2023-01-28T14:05:39;0.90;99.90
12470;DHT22;36499;46.484;13.832;2023-01-28T14:15:13;0.90;99.90
12470;DHT22;36499;46.484;13.832;2023-01-28T14:17:51;0.90;99.90
12470;DHT22;36499;46.484;13.832;2023-01-28T14:20:21;1.00;99.90
12470;DHT22;36499;46.484;13.832;2023-01-28T14:22:58;1.00;99.90
12470;DHT22;36499;46.484;13.832;2023-01-28T14:25:34;1.00;99.90
12470;DHT22;36499;46.484;13.832;2023-01-28T14:28:26;1.00;99.90
12470;DHT22;36499;46.484;13.832;2023-01-28T14:31:05;1.00;99.90
12470;DHT22;36499;46.484;13.832;2023-01-28T14:33:37;1.10;99.90
12470;DHT22;36499;46.484;13.832;2023-01-28T14:36:09;1.10;99.90
12470;DHT22;36499;46.484;13.832;2023-01-28T14:38:41;1.00;99.90
12470;DHT22;36499;46.484;13.832;2023-01-28T14:41:20;1.00;99.90
12470;DHT22;36499;46.484;13.832;2023-01-28T14:43:53;1.00;99.90
12470;DHT22;36499;46.484;13.832;2023-01-28T14:46:30;1.00;99.90
12470;DHT22;36499;46.484;13.832;2023-01-28T14:49:20;0.90;99.90
12470;DHT22;36499;46.484;13.832;2023-01-28T14:52:16;0.90;99.90
12470;DHT22;36499;46.484;13.832;2023-01-28T14:55:02;0.90;99.90
12470;DHT22;36499;46.484;13.832;2023-01-28T14:57:43;0.80;99.90
12470;DHT22;36499;46.484;13.832;2023-01-28T15:00:20;0.80;99.90
12470;DHT22;36499;46.484;13.832;2023-01-28T15:02:49;0.80;99.90
12470;DHT22;36499;46.484;13.832;2023-01-28T15:05:21;0.80;99.90
12470;DHT22;36499;46.484;13.832;2023-01-28T15:07:50;0.80;99.90
12470;DHT22;36499;46.484;13.832;2023-01-28T15:10:24;0.70;99.90
12470;DHT22;36499;46.484;13.832;2023-01-28T15:12:57;0.70;99.90
12470;DHT22;36499;46.484;13.832;2023-01-28T15:15:32;0.60;99.90
12470;DHT22;36499;46.484;13.832;2023-01-28T15:18:05;0.60;99.90
12470;DHT22;36499;46.484;13.832;2023-01-28T15:20:38;0.50;99.90
12470;DHT22;36499;46.484;13.832;2023-01-28T15:23:14;0.50;99.90
12470;DHT22;36499;46.484;13.832;2023-01-28T15:25:45;0.50;99.90
12470;DHT22;36499;46.484;13.832;2023-01-28T15:28:19;0.50;99.90
12470;DHT22;36499;46.484;13.832;2023-01-28T15:30:53;0.50;99.90
12470;DHT22;36499;46.484;13.832;2023-01-28T15:33:21;0.50;99.90
12470;DHT22;36499;46.484;13.832;2023-01-28T15:35:50;0.50;99.90
12470;DHT22;36499;46.484;13.832;2023-01-28T15:38:19;0.40;99.90
12470;DHT22;36499;46.484;13.832;2023-01-28T15:40:51;0.30;99.90
12470;DHT22;36499;46.484;13.832;2023-01-28T15:43:23;0.20;99.90
12470;DHT22;36499;46.484;13.832;2023-01-28T15:45:53;0.20;99.90
12470;DHT22;36499;46.484;13.832;2023-01-28T15:48:24;0.10;99.90
12470;DHT22;36499;46.484;13.832;2023-01-28T15:50:58;0.00;99.90
12470;DHT22;36499;46.484;13.832;2023-01-28T15:53:30;0.00;99.90
12470;DHT22;36499;46.484;13.832;2023-01-28T15:56:08;-0.10;99.90
12470;DHT22;36499;46.484;13.832;2023-01-28T15:58:37;-0.20;99.90
12470;DHT22;36499;46.484;13.832;2023-01-28T16:01:17;-0.20;99.90
12470;DHT22;36499;46.484;13.832;2023-01-28T16:03:59;-0.30;99.90
12470;DHT22;36499;46.484;13.832;2023-01-28T16:06:31;-0.40;99.90